Pittsburgh, Pennsylvania
Traffic Map
Current Weather Conditions
Pittsburgh, Pennsylvania
Clear
Clear
-6°
Feels Like: -12°
Wind Chill: -12° Ceiling: Unl
Heat Index: -6° Visibility: 10mi
Dew Point: -14° Wind: 9mph
Humidity: 55% Direction: 190° (S)
Pressure: 30.37in Gusts: 0mph
Raw Report DataKAGC 062109Z AUTO 19008KT 10SM CLR M06/M14 A3037 RMK AO2 T10611139 TSNO $
Traffic Incident Summary
Active as of:
Severity:
Category:
InformationThere was an issue retrieving the traffic information for this location. Please try a different location or try again shortly.
Advertisements
Track Severe Weather on mobile